• Join FlightAware (Why Join?)
  • Login
  • US Flag 
06:20AM EDT


 

Airport Tracker/Info


-or-


 

Live Flight TrackerFlight Track Log ✈ SWA3829 ✈ 09-Aug-2013 ✈ KAUS - KDAL

Flight Track Log - Related Links

Times and Time Zones

All times are in EDT time to prevent confusion due to time zone crossing. See the SWA3829 flight status page for this flight to view local times or setup timezone preferences in your user account.

Time Position Orientation Groundspeed Altitude Reporting Facility
EDT Latitude Longitude Course Direction KTS MPH feet Rate Location/Type
07:12AM 30.1200 -97.6289 41° Northeast 215 247 3,900  Level Houston Center
07:13AM 30.1433 -97.5758 63° Northeast 244 281 6,100 2,280 Climbing Houston Center
07:14AM 30.2008 -97.5153 42° Northeast 274 315 8,500 2,580 Climbing Houston Center
07:15AM 30.2753 -97.4703 28° Northeast 296 341 11,400 2,280 Climbing Houston Center
07:16AM 30.3581 -97.4217 27° Northeast 327 376 13,100 1,920 Climbing Houston Center
07:17AM 30.5806 -97.2694 41° Northeast  Level FlightAware Approximate
07:17AM 30.4492 -97.3681 27° Northeast 357 411 15,300  Level Houston Center
07:18AM 30.6411 -97.1922 41° Northeast  Level FlightAware Approximate
07:18AM 30.5428 -97.3136 27° Northeast 371 427 17,600  Level Houston Center
07:19AM 30.6264 -97.2336 39° Northeast 393 452 19,600 2,040 Climbing Houston Center
07:20AM 30.7161 -97.1264 46° Northeast 397 457 21,800 1,140 Climbing Houston Center
07:21AM 30.7956 -97.0306 46° Northeast 409 471 21,900  Climbing Houston Center
07:22AM 30.8739 -96.9386 45° Northeast 399 459 21,900  Level Houston Center
07:23AM 30.9525 -96.8425 46° Northeast 405 466 21,900  Level Houston Center
07:24AM 31.0314 -96.7475 46° Northeast 405 466 21,900  Level Houston Center
07:25AM 31.1114 -96.6497 46° Northeast 413 475 21,900  Level Houston Center
07:26AM 31.1906 -96.5575 45° Northeast 403 464 21,900  Level Houston Center
07:27AM 31.2792 -96.4767 38° Northeast 414 476 21,900  Level Houston Center
07:28AM 31.3919 -96.4656 North 402 463 21,900  Level Houston Center
07:29AM 31.5036 -96.4558 North 401 461 21,900  Level Houston Center
07:30AM 31.6169 -96.4450 North 403 464 21,900 -180 Level Houston Center
07:31AM 31.7297 -96.4353 North 403 464 21,600 -1,140 Descending Houston Center
07:32AM 31.8378 -96.4231 North 390 449 19,700 -1,980 Descending Houston Center
07:33AM 31.9400 -96.4147 North 369 425 17,700 -1,920 Descending Houston Center
07:34AM 32.0403 -96.4058 North 360 414 15,800 -1,860 Descending Houston Center
07:35AM 32.1356 -96.3967 North 345 397 14,000 -1,860 Descending Houston Center
07:37AM 32.2500 -96.3833 North 329 379 12,000 -1,800 Descending Dallas / Fort Worth TRACON
07:38AM 32.3333 -96.3833 360° North 318 366 10,300 -1,440 Descending Dallas / Fort Worth TRACON
07:39AM 32.4200 -96.3747 North 310 357 9,100 -1,380 Descending Fort Worth Center
07:40AM 32.4953 -96.4083 339° North 281 323 7,500 -1,260 Descending Fort Worth Center
07:41AM 32.5644 -96.4472 335° Northwest 276 318 6,600 -1,020 Descending Fort Worth Center
07:42AM 32.6317 -96.4883 333° Northwest 276 318 5,500 -720 Descending Fort Worth Center
07:44AM 32.7667 -96.5833 329° Northwest 276 318 4,600 -540 Descending Dallas / Fort Worth TRACON
07:45AM 32.8167 -96.6500 312° West 278 320 4,000 -360 Descending Dallas / Fort Worth TRACON
07:46AM 32.8833 -96.7167 320° Northwest 266 306 3,900 -540 Descending Dallas / Fort Worth TRACON
07:47AM 32.9333 -96.7833 312° West 264 304 2,900 -660 Descending Dallas / Fort Worth TRACON
07:48AM 32.9333 -96.8333 270° West 177 204 2,600 -600 Descending Dallas / Fort Worth TRACON
07:49AM 32.9167 -96.8833 248° West 147 169 1,800 -720 Descending Dallas / Fort Worth TRACON
07:50AM 32.8833 -96.9000 203° Southwest 146 168 1,200 -600 Descending Dallas / Fort Worth TRACON
07:52AM 32.8471 -96.8518 188° South  Level Estimated
07:59AM 32.8471 -96.8518 188° South  Level Estimated